createdAt,value
2022-12-04T00:00:46.365Z,38.30
2022-12-04T00:06:08.120Z,37.17
2022-12-04T00:11:12.011Z,35.53
2022-12-04T00:16:18.131Z,36.50
2022-12-04T00:21:22.103Z,35.00
2022-12-04T00:26:27.297Z,38.47
2022-12-04T00:31:31.302Z,37.70
2022-12-04T00:36:34.513Z,37.03
2022-12-04T00:41:37.318Z,35.77
2022-12-04T00:46:40.469Z,36.47
2022-12-04T00:51:43.466Z,35.93
2022-12-04T00:56:47.070Z,35.53
2022-12-04T01:01:50.003Z,34.77
2022-12-04T01:06:53.066Z,31.93
2022-12-04T01:11:56.023Z,36.20
2022-12-04T01:16:59.272Z,34.57
2022-12-04T01:22:03.863Z,34.50
2022-12-04T01:27:06.725Z,35.73
2022-12-04T01:32:09.760Z,35.20
2022-12-04T01:37:12.973Z,35.77
2022-12-04T01:42:16.310Z,35.60
2022-12-04T01:47:19.201Z,33.90
2022-12-04T01:52:23.108Z,32.50
2022-12-04T01:57:28.895Z,35.07
2022-12-04T02:02:37.838Z,33.47
2022-12-04T02:07:41.750Z,33.33
2022-12-04T02:13:10.586Z,34.87
2022-12-04T02:18:36.145Z,35.40
2022-12-04T02:23:57.454Z,33.03
2022-12-04T02:29:22.096Z,31.33
2022-12-04T02:34:35.497Z,31.97
2022-12-04T02:39:43.806Z,31.90
2022-12-04T02:44:53.284Z,31.77
2022-12-04T02:49:59.326Z,33.80
2022-12-04T02:55:25.779Z,32.10
2022-12-04T03:00:30.549Z,29.57
2022-12-04T03:05:39.201Z,33.70
2022-12-04T03:10:53.152Z,31.50
2022-12-04T03:16:09.006Z,31.73
2022-12-04T03:21:17.126Z,32.10
2022-12-04T03:26:38.908Z,31.90
2022-12-04T03:31:45.985Z,31.13
2022-12-04T03:37:21.542Z,32.17
2022-12-04T03:42:28.221Z,31.00
2022-12-04T03:47:46.894Z,31.53
2022-12-04T03:53:12.563Z,33.27
2022-12-04T03:58:20.650Z,32.87
2022-12-04T04:03:26.932Z,30.60
2022-12-04T04:08:35.281Z,32.73
2022-12-04T04:14:01.606Z,30.27
2022-12-04T04:19:23.269Z,31.77
2022-12-04T04:24:43.863Z,33.00
2022-12-04T04:29:52.229Z,32.00
2022-12-04T04:35:06.862Z,33.23
2022-12-04T04:40:24.408Z,33.33
2022-12-04T04:46:06.581Z,32.20
2022-12-04T04:51:10.396Z,33.93
2022-12-04T04:56:13.671Z,34.30
2022-12-04T05:01:18.793Z,34.17
2022-12-04T05:06:21.819Z,32.33
2022-12-04T05:11:25.003Z,35.00
2022-12-04T05:16:27.963Z,31.17
2022-12-04T05:21:31.433Z,32.27
2022-12-04T05:26:34.222Z,30.97
2022-12-04T05:31:37.010Z,31.10
2022-12-04T05:36:41.156Z,33.30
2022-12-04T05:41:44.181Z,30.53
2022-12-04T05:46:47.370Z,30.43
2022-12-04T05:51:51.067Z,32.63
2022-12-04T05:56:53.964Z,30.60
2022-12-04T06:01:57.042Z,79.63
2022-12-04T06:06:59.969Z,118.93
2022-12-04T06:12:03.009Z,52.97
2022-12-04T06:17:05.993Z,66.80
2022-12-04T06:22:08.743Z,43.27
2022-12-04T06:27:27.185Z,30.07
2022-12-04T06:32:30.774Z,34.80
2022-12-04T06:37:34.074Z,44.20
2022-12-04T06:42:37.130Z,33.27
2022-12-04T06:47:40.318Z,31.23
2022-12-04T06:52:43.188Z,31.47
2022-12-04T06:57:46.263Z,33.07
2022-12-04T07:02:49.574Z,36.97
2022-12-04T07:07:52.912Z,34.77
2022-12-04T07:12:55.808Z,33.57
2022-12-04T07:17:58.751Z,34.00
2022-12-04T07:23:07.029Z,32.63
2022-12-04T07:28:10.344Z,36.67
2022-12-04T07:33:13.869Z,45.50
2022-12-04T07:38:16.795Z,43.80
2022-12-04T07:43:19.740Z,34.73
2022-12-04T07:48:22.818Z,35.53
2022-12-04T07:53:25.998Z,32.03
2022-12-04T07:58:29.120Z,32.77
2022-12-04T08:03:32.234Z,34.33
2022-12-04T08:08:36.270Z,41.07
2022-12-04T08:13:39.272Z,43.70
2022-12-04T08:18:47.066Z,46.00
2022-12-04T08:23:52.013Z,40.40
2022-12-04T08:28:56.408Z,40.80
2022-12-04T08:34:04.252Z,45.93
2022-12-04T08:39:07.376Z,41.50
2022-12-04T08:44:10.672Z,60.13
2022-12-04T08:49:14.011Z,39.53
2022-12-04T08:54:16.954Z,34.47
2022-12-04T08:59:19.918Z,34.43
2022-12-04T09:04:23.278Z,34.83
2022-12-04T09:09:26.595Z,33.47
2022-12-04T09:14:29.641Z,32.90
2022-12-04T09:19:32.775Z,29.20
2022-12-04T09:24:35.993Z,31.37
2022-12-04T09:29:41.220Z,30.13
2022-12-04T09:34:48.249Z,32.47
2022-12-04T09:39:54.850Z,33.17
2022-12-04T09:45:12.951Z,30.40
2022-12-04T09:50:23.113Z,42.47
2022-12-04T09:55:34.035Z,29.27
2022-12-04T10:00:40.684Z,33.10
2022-12-04T10:05:53.179Z,33.97
2022-12-04T10:11:05.408Z,32.43
2022-12-04T10:16:18.027Z,29.53
2022-12-04T10:22:18.472Z,29.57
2022-12-04T10:27:24.597Z,31.43
2022-12-04T10:32:32.179Z,33.60
2022-12-04T10:37:40.967Z,41.20
2022-12-04T10:42:58.626Z,33.10
2022-12-04T10:48:02.333Z,28.77
2022-12-04T10:53:09.435Z,27.93
2022-12-04T10:58:17.697Z,28.00
2022-12-04T11:03:28.943Z,28.00
2022-12-04T11:08:43.677Z,28.50
2022-12-04T11:13:46.635Z,27.30
2022-12-04T11:18:50.979Z,28.63
2022-12-04T11:23:54.089Z,27.87
2022-12-04T11:28:59.125Z,26.40
2022-12-04T11:34:06.020Z,26.23
2022-12-04T11:39:16.097Z,30.33
2022-12-04T11:44:35.203Z,26.77
2022-12-04T11:49:43.588Z,25.80
2022-12-04T11:55:29.044Z,26.37
2022-12-04T12:00:33.442Z,26.33
2022-12-04T12:05:53.848Z,26.23
2022-12-04T12:11:04.430Z,26.17
2022-12-04T12:16:34.970Z,29.43
2022-12-04T12:21:44.624Z,33.70
2022-12-04T12:26:58.183Z,27.67
2022-12-04T12:32:20.430Z,35.47
2022-12-04T12:37:50.623Z,37.67
2022-12-04T12:43:01.569Z,28.57
2022-12-04T12:48:32.825Z,31.50
2022-12-04T12:53:39.850Z,28.40
2022-12-04T12:58:54.163Z,131.83
2022-12-04T13:03:58.984Z,86.80
2022-12-04T13:09:30.286Z,39.53
2022-12-04T13:14:33.977Z,30.23
2022-12-04T13:19:43.924Z,28.33
2022-12-04T13:25:08.738Z,27.13
2022-12-04T13:30:22.139Z,28.77
2022-12-04T13:35:28.040Z,27.03
2022-12-04T13:40:48.038Z,28.53
2022-12-04T13:45:52.546Z,27.37
2022-12-04T13:51:07.819Z,28.13
2022-12-04T13:56:31.040Z,27.57
2022-12-04T14:01:41.776Z,27.33
2022-12-04T14:06:51.461Z,25.77
2022-12-04T14:12:05.626Z,29.63
2022-12-04T14:17:28.201Z,25.90
2022-12-04T14:22:38.094Z,25.87
2022-12-04T14:27:41.143Z,26.23
2022-12-04T14:32:44.759Z,26.03
2022-12-04T14:38:02.788Z,25.87
2022-12-04T14:43:06.084Z,25.73
2022-12-04T14:48:17.361Z,26.53
2022-12-04T14:53:39.212Z,25.83
2022-12-04T14:58:42.928Z,27.40
2022-12-04T15:03:48.349Z,26.07
2022-12-04T15:08:53.895Z,26.40
2022-12-04T15:14:05.537Z,27.80
2022-12-04T15:19:19.058Z,25.80
2022-12-04T15:24:25.272Z,26.17
2022-12-04T15:29:31.141Z,25.23
2022-12-04T15:34:41.334Z,27.53
2022-12-04T15:39:45.780Z,27.63
2022-12-04T15:45:13.341Z,26.07
2022-12-04T15:50:16.697Z,27.33
2022-12-04T15:55:22.468Z,26.77
2022-12-04T16:00:34.800Z,29.57
2022-12-04T16:05:38.299Z,34.60
2022-12-04T16:10:41.324Z,26.70
2022-12-04T16:15:44.475Z,27.60
2022-12-04T16:20:47.941Z,28.77
2022-12-04T16:25:53.704Z,28.83
2022-12-04T16:31:00.222Z,29.00
2022-12-04T16:36:04.643Z,26.70
2022-12-04T16:41:14.025Z,30.70
2022-12-04T16:46:17.208Z,28.40
2022-12-04T16:51:22.592Z,33.00
2022-12-04T16:56:25.733Z,31.63
2022-12-04T17:01:34.809Z,31.47
2022-12-04T17:06:37.788Z,26.80
2022-12-04T17:11:40.946Z,26.03
2022-12-04T17:16:45.398Z,25.77
2022-12-04T17:21:48.653Z,26.77
2022-12-04T17:26:55.676Z,25.73
2022-12-04T17:31:58.792Z,26.30
2022-12-04T17:37:02.624Z,28.00
2022-12-04T17:42:05.899Z,26.53
2022-12-04T17:47:12.545Z,27.63
2022-12-04T17:52:15.614Z,28.23
2022-12-04T17:57:19.584Z,26.00
2022-12-04T18:02:23.111Z,26.50
2022-12-04T18:07:26.875Z,26.43
2022-12-04T18:12:30.282Z,25.70
2022-12-04T18:17:33.479Z,27.07
2022-12-04T18:22:36.736Z,25.50
2022-12-04T18:27:42.011Z,29.87
2022-12-04T18:32:45.555Z,27.03
2022-12-04T18:37:49.078Z,28.60
2022-12-04T18:42:52.792Z,25.50
2022-12-04T18:47:55.881Z,26.23
2022-12-04T18:53:03.372Z,25.33
2022-12-04T18:58:07.652Z,26.33
2022-12-04T19:03:12.322Z,31.40
2022-12-04T19:08:16.121Z,25.60
2022-12-04T19:13:19.479Z,25.37
2022-12-04T19:18:22.856Z,26.23
2022-12-04T19:23:26.006Z,30.17
2022-12-04T19:28:29.928Z,36.70
2022-12-04T19:33:33.271Z,26.53
2022-12-04T19:38:36.594Z,24.53
2022-12-04T19:43:42.376Z,24.63
2022-12-04T19:48:50.225Z,24.83
2022-12-04T19:53:54.856Z,24.17
2022-12-04T19:59:00.417Z,27.20
2022-12-04T20:04:06.143Z,23.67
2022-12-04T20:09:12.892Z,24.37
2022-12-04T20:14:16.083Z,23.27
2022-12-04T20:19:19.579Z,23.43
2022-12-04T20:24:26.640Z,25.37
2022-12-04T20:29:30.034Z,22.70
2022-12-04T20:34:43.112Z,23.23
2022-12-04T20:39:47.000Z,22.57
2022-12-04T20:44:50.440Z,22.70
2022-12-04T20:49:53.722Z,23.83
2022-12-04T20:54:57.182Z,23.37
2022-12-04T21:00:00.189Z,23.87
2022-12-04T21:05:03.395Z,22.70
2022-12-04T21:10:07.411Z,34.93
2022-12-04T21:15:29.060Z,23.10
2022-12-04T21:20:31.923Z,21.73
2022-12-04T21:25:36.639Z,22.30
2022-12-04T21:30:39.719Z,21.30
2022-12-04T21:35:42.681Z,20.37
2022-12-04T21:40:48.924Z,21.33
2022-12-04T21:46:09.648Z,21.87
2022-12-04T21:51:39.872Z,22.13
2022-12-04T21:56:36.576Z,20.50
2022-12-04T22:01:40.211Z,20.80
2022-12-04T22:06:43.465Z,19.27
2022-12-04T22:11:46.652Z,18.43
2022-12-04T22:16:53.251Z,18.67
2022-12-04T22:21:56.604Z,18.53
2022-12-04T22:27:00.065Z,16.77
2022-12-04T22:32:03.271Z,18.80
2022-12-04T22:37:06.375Z,18.90
2022-12-04T22:42:09.587Z,18.50
2022-12-04T22:47:12.523Z,18.20
2022-12-04T22:52:15.842Z,17.93
2022-12-04T22:57:22.301Z,18.73
2022-12-04T23:02:25.495Z,17.43
2022-12-04T23:07:28.944Z,19.30
2022-12-04T23:12:32.578Z,17.30
2022-12-04T23:17:35.639Z,18.03
2022-12-04T23:22:38.728Z,19.57
2022-12-04T23:27:41.486Z,17.23
2022-12-04T23:32:44.465Z,17.63
2022-12-04T23:37:47.359Z,16.20
2022-12-04T23:42:50.355Z,16.90
2022-12-04T23:47:54.183Z,17.27
2022-12-04T23:53:00.110Z,18.30
2022-12-04T23:58:03.150Z,18.57
